Time;durP1;ratioP1;P1;durP2;ratioP2;P2;SDS_P1;SDS_P2;PMS_P1;PMS_P2;Temp;Humidity;BMP_temperature;BMP_pressure;BME280_temperature;BME280_humidity;BME280_pressure;Samples;Min_cycle;Max_cycle;Signal;HPM_P1;HPM_P2
2022/10/10 00:01:12;;;;;;;9.27;4.10;;;;;;;;;;5089457;28;20290;-78
2022/10/10 00:03:39;;;;;;;10.23;4.20;;;;;;;;;;5078393;28;20238;-78
2022/10/10 00:06:07;;;;;;;9.70;4.10;;;;;;;;;;5078081;28;20702;-78
2022/10/10 00:08:36;;;;;;;7.57;3.93;;;;;;;;;;5086100;28;20229;-78
2022/10/10 00:11:03;;;;;;;7.93;4.00;;;;;;;;;;5085938;28;20230;-78
2022/10/10 00:13:31;;;;;;;8.10;4.00;;;;;;;;;;5087171;28;20675;-78
2022/10/10 00:15:58;;;;;;;9.77;4.00;;;;;;;;;;5086617;28;20282;-78
2022/10/10 00:18:25;;;;;;;8.73;4.50;;;;;;;;;;5081174;28;20234;-78
2022/10/10 00:20:52;;;;;;;9.37;4.40;;;;;;;;;;5082393;28;20195;-78
2022/10/10 00:23:20;;;;;;;11.50;4.47;;;;;;;;;;5074919;28;20227;-78
2022/10/10 00:25:49;;;;;;;7.07;3.83;;;;;;;;;;5077452;28;20282;-78
2022/10/10 00:28:16;;;;;;;10.63;4.57;;;;;;;;;;5086556;28;20231;-78
2022/10/10 00:30:43;;;;;;;9.90;4.20;;;;;;;;;;5086543;28;20257;-78
2022/10/10 00:33:11;;;;;;;12.00;4.73;;;;;;;;;;5085636;28;20286;-78
2022/10/10 00:35:38;;;;;;;9.33;4.30;;;;;;;;;;5083075;28;20736;-78
2022/10/10 00:38:05;;;;;;;9.93;4.47;;;;;;;;;;5081996;28;20268;-78
2022/10/10 00:40:33;;;;;;;6.87;4.10;;;;;;;;;;5084034;28;20289;-78
2022/10/10 00:43:02;;;;;;;8.83;4.33;;;;;;;;;;5079619;28;20198;-78
2022/10/10 00:45:31;;;;;;;9.80;4.43;;;;;;;;;;5085720;28;20309;-78
2022/10/10 00:48:00;;;;;;;13.20;5.00;;;;;;;;;;5084857;28;20642;-78
2022/10/10 00:50:28;;;;;;;11.53;4.90;;;;;;;;;;5085562;28;20226;-78
2022/10/10 00:52:55;;;;;;;10.03;4.60;;;;;;;;;;5082458;28;21014;-78
2022/10/10 00:55:22;;;;;;;12.20;4.43;;;;;;;;;;5083620;28;20233;-78
2022/10/10 00:57:50;;;;;;;11.80;4.90;;;;;;;;;;5082580;28;20742;-78
2022/10/10 01:00:19;;;;;;;11.40;4.87;;;;;;;;;;5081424;28;20226;-78
2022/10/10 01:02:46;;;;;;;10.80;4.87;;;;;;;;;;5080271;28;20250;-78
2022/10/10 01:05:13;;;;;;;10.37;4.53;;;;;;;;;;5078851;28;20321;-78
2022/10/10 01:07:40;;;;;;;7.93;4.73;;;;;;;;;;5077355;28;20231;-78
2022/10/10 01:10:09;;;;;;;11.20;5.03;;;;;;;;;;5085855;28;20230;-78
2022/10/10 01:12:44;;;;;;;13.57;5.27;;;;;;;;;;5094344;28;20686;-78
2022/10/10 01:15:14;;;;;;;9.27;5.20;;;;;;;;;;5079334;28;20274;-78
2022/10/10 01:17:47;;;;;;;8.80;5.27;;;;;;;;;;5086602;28;20626;-78
2022/10/10 01:20:27;;;;;;;9.53;4.87;;;;;;;;;;5074159;28;20282;-78
2022/10/10 01:23:03;;;;;;;8.03;5.33;;;;;;;;;;5080700;28;20286;-78
2022/10/10 01:25:32;;;;;;;8.87;5.23;;;;;;;;;;5078915;28;20301;-78
2022/10/10 01:28:01;;;;;;;10.17;5.77;;;;;;;;;;5082198;28;20222;-78
2022/10/10 01:30:31;;;;;;;8.43;5.30;;;;;;;;;;5077932;28;20223;-78
2022/10/10 01:33:04;;;;;;;11.67;5.40;;;;;;;;;;5074805;28;20285;-78
2022/10/10 01:35:35;;;;;;;12.10;6.03;;;;;;;;;;5078706;28;20283;-78
2022/10/10 01:38:11;;;;;;;11.47;5.17;;;;;;;;;;5078213;28;20249;-78
2022/10/10 01:40:45;;;;;;;12.67;6.00;;;;;;;;;;5083989;28;20222;-77
2022/10/10 01:43:12;;;;;;;10.40;5.50;;;;;;;;;;5080136;28;20737;-78
2022/10/10 01:45:45;;;;;;;8.10;5.10;;;;;;;;;;5091971;28;20255;-79
2022/10/10 01:48:12;;;;;;;10.67;6.00;;;;;;;;;;5084316;28;20290;-78
2022/10/10 01:50:45;;;;;;;10.47;5.43;;;;;;;;;;5082694;28;20678;-78
2022/10/10 01:53:15;;;;;;;12.03;5.70;;;;;;;;;;5086918;28;20289;-78
2022/10/10 01:55:52;;;;;;;9.07;6.00;;;;;;;;;;5073712;28;20286;-78
2022/10/10 01:58:34;;;;;;;9.77;5.60;;;;;;;;;;5079242;28;20673;-78
2022/10/10 02:01:08;;;;;;;12.37;5.67;;;;;;;;;;5075905;28;20233;-78
2022/10/10 02:03:38;;;;;;;7.43;5.40;;;;;;;;;;5078494;28;20801;-78
2022/10/10 02:06:08;;;;;;;8.93;5.37;;;;;;;;;;5078952;28;20218;-78
2022/10/10 02:08:36;;;;;;;8.50;5.40;;;;;;;;;;5089159;28;20230;-78
2022/10/10 02:11:04;;;;;;;9.80;5.57;;;;;;;;;;5074916;28;20286;-78
2022/10/10 02:13:36;;;;;;;11.10;5.40;;;;;;;;;;5073267;28;20246;-77
2022/10/10 02:16:08;;;;;;;10.57;5.70;;;;;;;;;;5080678;28;20273;-78
2022/10/10 02:18:36;;;;;;;8.13;5.70;;;;;;;;;;5074412;28;20222;-77
2022/10/10 02:21:04;;;;;;;10.97;5.93;;;;;;;;;;5086063;28;20620;-78
2022/10/10 02:23:32;;;;;;;8.80;5.33;;;;;;;;;;5075128;28;20290;-78
2022/10/10 02:25:59;;;;;;;12.87;5.67;;;;;;;;;;5072473;28;20223;-78
2022/10/10 02:28:30;;;;;;;10.33;5.83;;;;;;;;;;5083743;28;20736;-82
2022/10/10 02:31:00;;;;;;;9.90;6.40;;;;;;;;;;5083255;28;20219;-78
2022/10/10 02:33:32;;;;;;;10.57;6.10;;;;;;;;;;5079466;28;20281;-78
2022/10/10 02:36:01;;;;;;;10.77;6.57;;;;;;;;;;5081036;28;20279;-77
2022/10/10 02:38:28;;;;;;;10.10;6.93;;;;;;;;;;5081156;28;20191;-77
2022/10/10 02:40:57;;;;;;;10.90;6.83;;;;;;;;;;5080804;28;20286;-78
2022/10/10 02:43:24;;;;;;;13.63;6.33;;;;;;;;;;5077238;28;20235;-78
2022/10/10 02:45:51;;;;;;;9.70;6.10;;;;;;;;;;5080688;28;20302;-78
2022/10/10 02:48:19;;;;;;;11.97;6.90;;;;;;;;;;5075569;28;20282;-78
2022/10/10 02:50:47;;;;;;;9.80;6.20;;;;;;;;;;5072712;28;20191;-78
2022/10/10 02:53:15;;;;;;;11.73;6.20;;;;;;;;;;5073329;28;20750;-78
2022/10/10 02:55:42;;;;;;;10.30;5.90;;;;;;;;;;5081098;28;20251;-78
2022/10/10 02:58:09;;;;;;;7.13;5.73;;;;;;;;;;5081837;28;20252;-78
2022/10/10 03:00:36;;;;;;;10.23;5.93;;;;;;;;;;5091138;28;20202;-78
2022/10/10 03:03:03;;;;;;;12.10;7.10;;;;;;;;;;5075336;28;20315;-78
2022/10/10 03:05:31;;;;;;;11.57;7.77;;;;;;;;;;5078312;28;20234;-78
2022/10/10 03:07:59;;;;;;;12.23;7.53;;;;;;;;;;5087684;28;20249;-78
2022/10/10 03:10:27;;;;;;;12.60;7.40;;;;;;;;;;5087337;28;20277;-78
2022/10/10 03:12:54;;;;;;;13.63;7.03;;;;;;;;;;5088012;28;20298;-78
2022/10/10 03:15:21;;;;;;;15.23;6.40;;;;;;;;;;5090615;28;20236;-78
2022/10/10 03:17:48;;;;;;;11.07;6.53;;;;;;;;;;5099244;28;20190;-78
2022/10/10 03:20:15;;;;;;;11.43;6.53;;;;;;;;;;5098196;28;20225;-78
2022/10/10 03:22:43;;;;;;;12.33;7.17;;;;;;;;;;5085183;28;21851;-78
2022/10/10 03:25:11;;;;;;;13.43;6.77;;;;;;;;;;5078400;28;20248;-77
2022/10/10 03:27:38;;;;;;;11.73;6.97;;;;;;;;;;5080226;28;20301;-77
2022/10/10 03:30:06;;;;;;;11.97;6.30;;;;;;;;;;5085264;28;20310;-78
2022/10/10 03:32:33;;;;;;;10.37;6.20;;;;;;;;;;5097867;28;20229;-78
2022/10/10 03:35:00;;;;;;;9.87;6.50;;;;;;;;;;5091976;28;20226;-78
2022/10/10 03:37:27;;;;;;;10.37;5.87;;;;;;;;;;5090957;28;20226;-78
2022/10/10 03:39:55;;;;;;;10.87;5.90;;;;;;;;;;5094965;28;20368;-78
2022/10/10 03:42:23;;;;;;;11.00;5.87;;;;;;;;;;5082066;28;20226;-78
2022/10/10 03:44:50;;;;;;;9.03;6.80;;;;;;;;;;5095332;28;20632;-78
2022/10/10 03:47:17;;;;;;;13.80;6.60;;;;;;;;;;5083897;28;20780;-78
2022/10/10 03:49:45;;;;;;;12.63;6.63;;;;;;;;;;5085715;28;20282;-78
2022/10/10 03:52:12;;;;;;;13.17;6.97;;;;;;;;;;5095260;28;20301;-78
2022/10/10 03:54:39;;;;;;;10.80;5.83;;;;;;;;;;5080819;28;20277;-78
2022/10/10 03:57:06;;;;;;;12.50;6.10;;;;;;;;;;5093963;28;20247;-78
2022/10/10 03:59:35;;;;;;;13.47;5.80;;;;;;;;;;5088046;28;20285;-78
2022/10/10 04:02:02;;;;;;;8.20;5.93;;;;;;;;;;5093246;28;20285;-77
2022/10/10 04:04:29;;;;;;;11.80;6.03;;;;;;;;;;5080701;28;20685;-78
2022/10/10 04:06:56;;;;;;;14.93;7.07;;;;;;;;;;5092663;28;20251;-79
2022/10/10 04:09:24;;;;;;;10.23;6.33;;;;;;;;;;5082756;28;20234;-78
2022/10/10 04:11:51;;;;;;;15.33;7.30;;;;;;;;;;5094667;28;20240;-78
2022/10/10 04:14:18;;;;;;;12.30;7.43;;;;;;;;;;5092962;28;20234;-78
2022/10/10 04:16:47;;;;;;;9.33;6.83;;;;;;;;;;5081819;28;20245;-78
2022/10/10 04:19:14;;;;;;;13.90;7.87;;;;;;;;;;5091511;28;20285;-77
2022/10/10 04:21:41;;;;;;;14.10;8.40;;;;;;;;;;5091178;28;20277;-78
2022/10/10 04:24:08;;;;;;;19.73;10.03;;;;;;;;;;5090523;28;20218;-78
2022/10/10 04:26:36;;;;;;;27.00;11.40;;;;;;;;;;5094179;28;20248;-78
2022/10/10 04:29:03;;;;;;;37.03;13.87;;;;;;;;;;5083454;28;20218;-78
2022/10/10 04:31:30;;;;;;;46.63;15.23;;;;;;;;;;5082715;28;20302;-79
2022/10/10 04:33:59;;;;;;;52.40;16.20;;;;;;;;;;5077618;28;20230;-78
2022/10/10 04:36:26;;;;;;;36.27;15.33;;;;;;;;;;5085332;28;20227;-78
2022/10/10 04:38:53;;;;;;;38.37;15.30;;;;;;;;;;5083392;28;20702;-78
2022/10/10 04:41:21;;;;;;;31.37;16.07;;;;;;;;;;5089409;28;20282;-78
2022/10/10 04:43:48;;;;;;;35.77;15.97;;;;;;;;;;5075694;28;20226;-77
2022/10/10 04:46:15;;;;;;;37.23;16.37;;;;;;;;;;5085120;28;20297;-78
2022/10/10 04:48:42;;;;;;;47.67;16.53;;;;;;;;;;5076105;28;21056;-78
2022/10/10 04:51:11;;;;;;;33.67;16.13;;;;;;;;;;5087885;28;20637;-78
2022/10/10 04:53:38;;;;;;;34.40;16.73;;;;;;;;;;5081774;28;20282;-77
2022/10/10 04:56:05;;;;;;;44.37;17.93;;;;;;;;;;5092238;28;20206;-78
2022/10/10 04:58:33;;;;;;;44.10;17.50;;;;;;;;;;5094312;28;20226;-78
2022/10/10 05:01:00;;;;;;;33.23;17.20;;;;;;;;;;5090844;28;20654;-79
2022/10/10 05:03:27;;;;;;;36.83;17.50;;;;;;;;;;5073918;28;20227;-78
2022/10/10 05:05:54;;;;;;;38.53;18.13;;;;;;;;;;5078073;28;20402;-77
2022/10/10 05:08:24;;;;;;;36.17;17.63;;;;;;;;;;5086350;28;20318;-78
2022/10/10 05:10:52;;;;;;;32.80;17.27;;;;;;;;;;5082178;28;20257;-79
2022/10/10 05:13:20;;;;;;;46.13;17.57;;;;;;;;;;5082489;28;20205;-78
2022/10/10 05:15:50;;;;;;;34.70;17.60;;;;;;;;;;5086637;28;20278;-78
2022/10/10 05:18:17;;;;;;;59.13;18.17;;;;;;;;;;5073744;28;20848;-78
2022/10/10 05:20:46;;;;;;;52.50;17.77;;;;;;;;;;5074991;28;20206;-78
2022/10/10 05:23:14;;;;;;;43.87;17.87;;;;;;;;;;5084468;28;20199;-78
2022/10/10 05:25:43;;;;;;;38.23;18.73;;;;;;;;;;5089786;28;20278;-78
2022/10/10 05:28:11;;;;;;;39.50;19.27;;;;;;;;;;5074362;28;20221;-78
2022/10/10 05:30:38;;;;;;;42.07;18.63;;;;;;;;;;5072297;28;20195;-78
2022/10/10 05:33:05;;;;;;;40.30;19.83;;;;;;;;;;5075698;28;20202;-78
2022/10/10 05:35:32;;;;;;;42.80;19.50;;;;;;;;;;5073632;28;20246;-78
2022/10/10 05:38:00;;;;;;;47.23;19.97;;;;;;;;;;5077417;28;20238;-78
2022/10/10 05:40:27;;;;;;;40.83;20.07;;;;;;;;;;5083858;28;20227;-78
2022/10/10 05:42:55;;;;;;;36.07;19.57;;;;;;;;;;5073439;28;20234;-78
2022/10/10 05:45:23;;;;;;;39.63;19.83;;;;;;;;;;5073903;28;20282;-77
2022/10/10 05:47:50;;;;;;;40.77;21.03;;;;;;;;;;5077073;28;20311;-79
2022/10/10 05:50:26;;;;;;;36.73;20.27;;;;;;;;;;5073433;28;20231;-79
2022/10/10 05:52:53;;;;;;;38.07;20.43;;;;;;;;;;5073247;28;20256;-80
2022/10/10 05:55:20;;;;;;;38.30;20.20;;;;;;;;;;5087780;28;20233;-79
2022/10/10 05:57:47;;;;;;;44.60;20.30;;;;;;;;;;5093115;28;20286;-79
2022/10/10 06:00:16;;;;;;;40.53;20.13;;;;;;;;;;5093645;28;20202;-79
2022/10/10 06:02:43;;;;;;;34.20;19.77;;;;;;;;;;5093244;28;20329;-79
2022/10/10 06:05:10;;;;;;;35.33;20.77;;;;;;;;;;5092878;28;20285;-79
2022/10/10 06:07:38;;;;;;;40.93;20.43;;;;;;;;;;5092618;28;20590;-79
2022/10/10 06:10:05;;;;;;;45.23;21.27;;;;;;;;;;5079006;28;20222;-79
2022/10/10 06:12:32;;;;;;;62.20;21.47;;;;;;;;;;5073287;28;20282;-79
2022/10/10 06:15:00;;;;;;;41.03;20.90;;;;;;;;;;5072562;28;20641;-79
2022/10/10 06:17:28;;;;;;;37.47;21.20;;;;;;;;;;5073303;28;20308;-79
2022/10/10 06:19:55;;;;;;;50.20;21.00;;;;;;;;;;5072706;28;20238;-78
2022/10/10 06:22:23;;;;;;;44.87;21.20;;;;;;;;;;5073076;28;20230;-79
2022/10/10 06:24:50;;;;;;;51.23;22.33;;;;;;;;;;5072478;28;20689;-79
2022/10/10 06:27:17;;;;;;;41.70;21.40;;;;;;;;;;5072571;28;20313;-79
2022/10/10 06:29:45;;;;;;;62.57;22.23;;;;;;;;;;5072808;28;20305;-79
2022/10/10 06:32:12;;;;;;;49.23;21.57;;;;;;;;;;5072550;28;20674;-79
2022/10/10 06:34:40;;;;;;;38.37;21.03;;;;;;;;;;5074663;28;20199;-79
2022/10/10 06:37:09;;;;;;;50.37;22.20;;;;;;;;;;5093109;28;20285;-79
2022/10/10 06:39:36;;;;;;;50.20;22.67;;;;;;;;;;5084851;28;20199;-79
2022/10/10 06:42:03;;;;;;;59.93;22.63;;;;;;;;;;5071993;28;20245;-79
2022/10/10 06:44:31;;;;;;;51.20;22.43;;;;;;;;;;5072854;28;20684;-80
2022/10/10 06:46:58;;;;;;;82.83;23.43;;;;;;;;;;5075561;28;20253;-80
2022/10/10 06:49:25;;;;;;;56.50;23.07;;;;;;;;;;5086521;28;20227;-79
2022/10/10 06:51:54;;;;;;;43.30;23.93;;;;;;;;;;5072018;28;20691;-79
2022/10/10 06:54:21;;;;;;;68.17;23.40;;;;;;;;;;5072441;28;20278;-79
2022/10/10 06:56:48;;;;;;;47.57;23.67;;;;;;;;;;5087245;28;20226;-79
2022/10/10 06:59:15;;;;;;;56.10;23.17;;;;;;;;;;5092537;28;20626;-79
2022/10/10 07:01:42;;;;;;;57.10;23.07;;;;;;;;;;5090643;28;20241;-79
2022/10/10 07:04:10;;;;;;;62.27;23.23;;;;;;;;;;5071916;28;20273;-79
2022/10/10 07:06:37;;;;;;;55.33;23.00;;;;;;;;;;5074416;28;20200;-79
2022/10/10 07:09:06;;;;;;;42.00;22.87;;;;;;;;;;5079874;28;20233;-79
2022/10/10 07:11:33;;;;;;;45.87;23.60;;;;;;;;;;5091453;28;20285;-79
2022/10/10 07:14:00;;;;;;;44.70;23.73;;;;;;;;;;5072371;28;20294;-79
2022/10/10 07:16:27;;;;;;;44.33;23.20;;;;;;;;;;5071942;28;20234;-79
2022/10/10 07:18:54;;;;;;;43.53;23.23;;;;;;;;;;5072739;28;20195;-79
2022/10/10 07:21:21;;;;;;;39.23;22.97;;;;;;;;;;5071545;28;20636;-79
2022/10/10 07:23:48;;;;;;;41.20;21.60;;;;;;;;;;5072489;28;20245;-80
2022/10/10 07:26:20;;;;;;;38.60;21.93;;;;;;;;;;5072087;28;20282;-79
2022/10/10 07:28:48;;;;;;;37.80;22.07;;;;;;;;;;5086031;28;20222;-79
2022/10/10 07:31:15;;;;;;;40.50;21.33;;;;;;;;;;5092279;28;20289;-79
2022/10/10 07:33:44;;;;;;;38.10;21.83;;;;;;;;;;5092180;28;20198;-80
2022/10/10 07:36:11;;;;;;;37.33;21.13;;;;;;;;;;5091934;28;20561;-79
2022/10/10 07:38:38;;;;;;;44.33;22.60;;;;;;;;;;5092419;28;20233;-79
2022/10/10 07:41:06;;;;;;;37.50;23.30;;;;;;;;;;5092289;28;20285;-79
2022/10/10 07:43:36;;;;;;;41.10;23.33;;;;;;;;;;5092037;28;20281;-80
2022/10/10 07:46:03;;;;;;;34.17;22.67;;;;;;;;;;5085793;28;20282;-79
2022/10/10 07:48:31;;;;;;;33.63;22.13;;;;;;;;;;5080983;28;20664;-79
2022/10/10 07:50:58;;;;;;;40.17;23.03;;;;;;;;;;5078310;28;20246;-79
2022/10/10 07:53:25;;;;;;;34.63;22.40;;;;;;;;;;5071806;28;20237;-79
2022/10/10 07:55:52;;;;;;;40.57;21.63;;;;;;;;;;5090730;28;20715;-80
2022/10/10 07:58:20;;;;;;;36.67;21.70;;;;;;;;;;5096095;28;20285;-79
2022/10/10 08:00:48;;;;;;;39.17;22.30;;;;;;;;;;5095831;28;20277;-80
2022/10/10 08:03:15;;;;;;;35.20;21.47;;;;;;;;;;5095571;28;20321;-79
2022/10/10 08:05:45;;;;;;;33.07;20.53;;;;;;;;;;5095688;28;20226;-79
2022/10/10 08:08:13;;;;;;;31.53;20.70;;;;;;;;;;5095745;28;20222;-79
2022/10/10 08:10:43;;;;;;;30.70;20.60;;;;;;;;;;5095619;28;20629;-79
2022/10/10 08:13:10;;;;;;;32.90;20.77;;;;;;;;;;5096011;28;20202;-79
2022/10/10 08:15:39;;;;;;;35.33;22.27;;;;;;;;;;5094909;28;20285;-79
2022/10/10 08:18:08;;;;;;;34.23;21.67;;;;;;;;;;5095823;28;20230;-80
2022/10/10 08:20:35;;;;;;;33.13;21.53;;;;;;;;;;5092343;28;20242;-79
2022/10/10 08:23:02;;;;;;;35.37;22.30;;;;;;;;;;5080176;28;20286;-80
2022/10/10 08:25:29;;;;;;;30.97;21.13;;;;;;;;;;5095230;28;20187;-80
2022/10/10 08:27:57;;;;;;;35.63;20.87;;;;;;;;;;5094982;28;20756;-79
2022/10/10 08:30:24;;;;;;;34.47;21.07;;;;;;;;;;5095202;28;20777;-80
2022/10/10 08:32:51;;;;;;;28.30;21.53;;;;;;;;;;5094816;28;20240;-80
2022/10/10 08:35:20;;;;;;;29.17;19.47;;;;;;;;;;5094942;28;20238;-80
2022/10/10 08:37:47;;;;;;;32.77;21.47;;;;;;;;;;5095438;28;20277;-80
2022/10/10 08:40:16;;;;;;;28.88;19.95;;;;;;;;;;5095350;28;20294;-80
2022/10/10 08:42:46;;;;;;;34.50;19.83;;;;;;;;;;5081997;28;20285;-80
2022/10/10 08:45:15;;;;;;;29.17;20.13;;;;;;;;;;5085451;28;20696;-80
2022/10/10 08:47:45;;;;;;;28.77;19.43;;;;;;;;;;5076960;28;20269;-79
2022/10/10 08:50:15;;;;;;;28.60;19.50;;;;;;;;;;5094762;28;20205;-79
2022/10/10 08:52:48;;;;;;;35.83;20.93;;;;;;;;;;5094953;28;20233;-80
2022/10/10 08:55:17;;;;;;;33.20;20.08;;;;;;;;;;5094798;28;20202;-79
2022/10/10 08:57:48;;;;;;;34.83;20.55;;;;;;;;;;5094758;28;20226;-79
2022/10/10 09:00:17;;;;;;;42.77;26.37;;;;;;;;;;5094351;28;20285;-79
2022/10/10 09:02:48;;;;;;;48.30;27.60;;;;;;;;;;5094491;28;20696;-80
2022/10/10 09:05:18;;;;;;;39.30;24.75;;;;;;;;;;5094100;28;20289;-79
2022/10/10 09:07:54;;;;;;;35.22;22.65;;;;;;;;;;5093984;28;20222;-80
2022/10/10 09:10:25;;;;;;;36.58;21.40;;;;;;;;;;5094631;28;20225;-79
2022/10/10 09:12:59;;;;;;;33.40;19.95;;;;;;;;;;5094847;28;20281;-79
2022/10/10 09:15:28;;;;;;;29.58;19.42;;;;;;;;;;5094568;28;20226;-79
2022/10/10 09:18:00;;;;;;;34.45;19.13;;;;;;;;;;5093886;28;20278;-79
2022/10/10 09:20:32;;;;;;;34.47;16.80;;;;;;;;;;5074322;28;20640;-79
2022/10/10 09:23:02;;;;;;;27.42;16.73;;;;;;;;;;5074217;28;20231;-80
2022/10/10 09:25:33;;;;;;;25.30;15.55;;;;;;;;;;5073717;28;20238;-79
2022/10/10 09:28:03;;;;;;;23.65;13.98;;;;;;;;;;5073674;28;20301;-80
2022/10/10 09:30:32;;;;;;;18.98;12.13;;;;;;;;;;5074092;28;20258;-80
2022/10/10 09:33:02;;;;;;;18.92;11.25;;;;;;;;;;5073417;28;20746;-80
2022/10/10 09:35:31;;;;;;;19.42;10.45;;;;;;;;;;5091852;28;20692;-80
2022/10/10 09:38:02;;;;;;;18.13;9.75;;;;;;;;;;5094306;28;20225;-80
2022/10/10 09:40:34;;;;;;;19.50;10.45;;;;;;;;;;5093668;28;20245;-80
2022/10/10 09:43:10;;;;;;;20.75;10.63;;;;;;;;;;5084876;28;20287;-80
2022/10/10 09:45:39;;;;;;;22.88;10.43;;;;;;;;;;5082338;28;20289;-80
2022/10/10 09:48:06;;;;;;;14.57;9.30;;;;;;;;;;5093392;28;20700;-80
2022/10/10 09:50:34;;;;;;;19.52;9.68;;;;;;;;;;5087695;28;20238;-80
2022/10/10 09:53:01;;;;;;;18.38;9.18;;;;;;;;;;5074136;28;20301;-79
2022/10/10 09:55:29;;;;;;;19.85;10.45;;;;;;;;;;5074432;28;20203;-80
2022/10/10 09:58:01;;;;;;;17.17;10.05;;;;;;;;;;5074749;28;20265;-80
2022/10/10 10:00:33;;;;;;;17.63;10.27;;;;;;;;;;5073390;28;20286;-80
2022/10/10 10:03:11;;;;;;;15.50;9.05;;;;;;;;;;5090260;28;20222;-80
2022/10/10 10:05:38;;;;;;;17.48;9.70;;;;;;;;;;5087367;28;20199;-80
2022/10/10 10:08:06;;;;;;;19.15;9.63;;;;;;;;;;5073398;28;20250;-80
2022/10/10 10:10:35;;;;;;;17.30;8.88;;;;;;;;;;5072659;28;20291;-79
2022/10/10 10:13:12;;;;;;;20.90;9.27;;;;;;;;;;5078572;28;20241;-80
2022/10/10 10:15:40;;;;;;;16.45;8.40;;;;;;;;;;5092658;28;20281;-80
2022/10/10 10:18:11;;;;;;;21.70;8.98;;;;;;;;;;5092506;28;20289;-80
2022/10/10 10:20:40;;;;;;;15.75;7.93;;;;;;;;;;5093006;28;20200;-80
2022/10/10 10:23:22;;;;;;;22.05;8.90;;;;;;;;;;5093638;28;20238;-79
2022/10/10 10:25:57;;;;;;;15.68;8.40;;;;;;;;;;5093249;28;20238;-80
2022/10/10 10:28:26;;;;;;;16.45;7.68;;;;;;;;;;5093305;28;20300;-80
2022/10/10 10:30:54;;;;;;;15.93;7.55;;;;;;;;;;5092666;28;20199;-80
2022/10/10 10:33:39;;;;;;;13.30;7.72;;;;;;;;;;5080856;28;20249;-80
2022/10/10 10:36:11;;;;;;;17.55;7.28;;;;;;;;;;5081261;28;20281;-80
2022/10/10 10:38:43;;;;;;;17.60;7.28;;;;;;;;;;5088681;28;20663;-80
2022/10/10 10:41:16;;;;;;;16.67;7.28;;;;;;;;;;5073241;28;20226;-80
2022/10/10 10:43:58;;;;;;;16.60;7.22;;;;;;;;;;5076364;28;20277;-80
2022/10/10 10:46:28;;;;;;;16.45;7.32;;;;;;;;;;5088445;28;20226;-80
2022/10/10 10:49:00;;;;;;;15.05;6.85;;;;;;;;;;5092324;28;20671;-80
2022/10/10 10:51:48;;;;;;;14.50;7.15;;;;;;;;;;5084954;28;20697;-81
2022/10/10 10:54:23;;;;;;;15.02;7.35;;;;;;;;;;5067744;28;20286;-80
2022/10/10 10:56:52;;;;;;;15.88;6.90;;;;;;;;;;5072606;28;20281;-80
2022/10/10 10:59:27;;;;;;;13.57;6.75;;;;;;;;;;5072226;28;20637;-80
2022/10/10 11:01:58;;;;;;;16.02;7.20;;;;;;;;;;5072226;28;20286;-80
2022/10/10 11:04:41;;;;;;;15.98;6.65;;;;;;;;;;5072538;28;20600;-80
2022/10/10 11:07:14;;;;;;;15.23;7.20;;;;;;;;;;5072546;28;20289;-79
2022/10/10 11:09:43;;;;;;;14.43;6.80;;;;;;;;;;5071932;28;20714;-80
2022/10/10 11:12:15;;;;;;;17.38;6.55;;;;;;;;;;5079867;28;20194;-79
2022/10/10 11:14:50;;;;;;;17.08;6.65;;;;;;;;;;5092524;28;20281;-80
2022/10/10 11:17:20;;;;;;;17.38;6.50;;;;;;;;;;5092289;28;20233;-80
2022/10/10 11:19:55;;;;;;;14.98;6.57;;;;;;;;;;5092180;28;20289;-80
2022/10/10 11:22:25;;;;;;;15.73;6.53;;;;;;;;;;5092783;28;20254;-80
2022/10/10 11:24:54;;;;;;;17.65;7.07;;;;;;;;;;5092418;28;20230;-80
2022/10/10 11:27:25;;;;;;;17.83;6.43;;;;;;;;;;5090640;28;20285;-80
2022/10/10 11:29:59;;;;;;;13.45;6.35;;;;;;;;;;5096032;28;20318;-80
2022/10/10 11:32:28;;;;;;;13.63;6.65;;;;;;;;;;5096629;28;20628;-80
2022/10/10 11:35:03;;;;;;;15.02;6.40;;;;;;;;;;5096490;28;20315;-81
2022/10/10 11:37:33;;;;;;;18.45;6.40;;;;;;;;;;5096595;28;20229;-80
2022/10/10 11:40:04;;;;;;;15.70;6.60;;;;;;;;;;5096155;28;20262;-80
2022/10/10 11:42:33;;;;;;;14.88;6.43;;;;;;;;;;5096200;28;20285;-80
2022/10/10 11:45:04;;;;;;;16.13;6.18;;;;;;;;;;5086857;28;20298;-80
2022/10/10 11:47:33;;;;;;;12.93;5.75;;;;;;;;;;5075995;28;20291;-80
2022/10/10 11:50:04;;;;;;;13.18;6.22;;;;;;;;;;5075704;28;20310;-80
2022/10/10 11:52:34;;;;;;;16.08;6.93;;;;;;;;;;5075691;28;20199;-80
2022/10/10 11:55:04;;;;;;;15.93;6.25;;;;;;;;;;5075645;28;20601;-80
2022/10/10 11:57:34;;;;;;;14.30;6.18;;;;;;;;;;5075392;28;20290;-79
2022/10/10 12:00:05;;;;;;;15.82;6.18;;;;;;;;;;5075805;28;20282;-80
2022/10/10 12:02:35;;;;;;;13.95;6.20;;;;;;;;;;5075293;28;20267;-80
2022/10/10 12:05:04;;;;;;;15.30;6.30;;;;;;;;;;5075587;28;20201;-80
2022/10/10 12:07:33;;;;;;;17.02;6.40;;;;;;;;;;5075012;28;20199;-80
2022/10/10 12:10:02;;;;;;;15.32;6.05;;;;;;;;;;5075148;28;20317;-79
2022/10/10 12:12:31;;;;;;;13.57;6.07;;;;;;;;;;5074927;28;20583;-80
2022/10/10 12:15:00;;;;;;;19.17;6.60;;;;;;;;;;5075363;28;20701;-80
2022/10/10 12:17:30;;;;;;;14.18;6.13;;;;;;;;;;5093599;28;20234;-80
2022/10/10 12:20:09;;;;;;;18.67;6.88;;;;;;;;;;5095537;28;20646;-80
2022/10/10 12:22:36;;;;;;;16.15;6.55;;;;;;;;;;5095929;28;20244;-79
2022/10/10 12:25:08;;;;;;;15.88;6.43;;;;;;;;;;5095672;28;20234;-80
2022/10/10 12:27:45;;;;;;;15.60;6.00;;;;;;;;;;5094944;28;20780;-80
2022/10/10 12:30:23;;;;;;;10.88;5.85;;;;;;;;;;5083653;28;20309;-80
2022/10/10 12:32:54;;;;;;;12.68;5.68;;;;;;;;;;5075309;28;20195;-80
2022/10/10 12:35:30;;;;;;;12.23;5.57;;;;;;;;;;5075268;28;20206;-80
2022/10/10 12:38:27;;;;;;;12.93;5.35;;;;;;;;;;5074742;28;20286;-80
2022/10/10 12:41:05;;;;;;;17.10;5.68;;;;;;;;;;5073823;28;20195;-79
2022/10/10 12:43:40;;;;;;;14.15;5.78;;;;;;;;;;5074620;28;20203;-80
2022/10/10 12:46:22;;;;;;;14.68;5.65;;;;;;;;;;5074643;28;20230;-80
2022/10/10 12:48:59;;;;;;;11.25;5.10;;;;;;;;;;5085764;28;20222;-80
2022/10/10 12:51:26;;;;;;;12.00;5.53;;;;;;;;;;5083630;28;20199;-80
2022/10/10 12:53:55;;;;;;;11.75;5.05;;;;;;;;;;5085592;28;20281;-79
2022/10/10 12:56:33;;;;;;;14.40;5.30;;;;;;;;;;5094639;28;20285;-80
2022/10/10 12:59:00;;;;;;;12.73;5.72;;;;;;;;;;5094893;28;20244;-80
2022/10/10 13:01:30;;;;;;;15.38;8.57;;;;;;;;;;5094824;28;20281;-80
2022/10/10 13:03:58;;;;;;;16.23;8.82;;;;;;;;;;5094857;28;20316;-79
2022/10/10 13:06:29;;;;;;;14.45;6.82;;;;;;;;;;5084958;28;20287;-79
2022/10/10 13:08:56;;;;;;;14.43;7.18;;;;;;;;;;5073919;28;20306;-79
2022/10/10 13:11:23;;;;;;;13.70;7.07;;;;;;;;;;5074405;28;20629;-80
2022/10/10 13:13:51;;;;;;;15.40;8.05;;;;;;;;;;5074211;28;20286;-79
2022/10/10 13:16:19;;;;;;;16.33;7.85;;;;;;;;;;5074565;28;20276;-79
2022/10/10 13:18:49;;;;;;;15.82;7.55;;;;;;;;;;5074047;28;20203;-79
2022/10/10 13:21:20;;;;;;;14.68;7.82;;;;;;;;;;5080166;28;20230;-79
2022/10/10 13:23:48;;;;;;;12.45;7.07;;;;;;;;;;5093812;28;20238;-79
2022/10/10 13:26:20;;;;;;;15.07;7.10;;;;;;;;;;5094555;28;20286;-79
2022/10/10 13:28:47;;;;;;;16.50;7.32;;;;;;;;;;5094212;28;20250;-79
2022/10/10 13:31:15;;;;;;;14.40;7.22;;;;;;;;;;5094241;28;20281;-79
2022/10/10 13:33:42;;;;;;;11.18;6.50;;;;;;;;;;5094024;28;20233;-80
2022/10/10 13:36:18;;;;;;;15.98;6.25;;;;;;;;;;5094292;28;20285;-79
2022/10/10 13:38:47;;;;;;;32.08;16.15;;;;;;;;;;5093499;28;20289;-80
2022/10/10 13:41:14;;;;;;;21.88;9.68;;;;;;;;;;5094159;28;20331;-79
2022/10/10 13:43:42;;;;;;;17.13;8.70;;;;;;;;;;5076514;28;20282;-80
2022/10/10 13:46:19;;;;;;;19.63;9.73;;;;;;;;;;5073889;28;20290;-80
2022/10/10 13:48:47;;;;;;;13.27;6.65;;;;;;;;;;5085208;28;20198;-80
2022/10/10 13:51:15;;;;;;;10.50;5.65;;;;;;;;;;5093850;28;20198;-79
2022/10/10 13:53:51;;;;;;;12.20;5.30;;;;;;;;;;5084071;28;20290;-79
2022/10/10 13:56:21;;;;;;;12.23;5.32;;;;;;;;;;5074820;28;20285;-80
2022/10/10 13:58:50;;;;;;;11.40;5.82;;;;;;;;;;5073617;28;20290;-80
2022/10/10 14:01:35;;;;;;;16.33;7.25;;;;;;;;;;5073838;28;20658;-80
2022/10/10 14:04:04;;;;;;;8.75;4.80;;;;;;;;;;5073424;28;20269;-80
2022/10/10 14:06:32;;;;;;;5.63;2.80;;;;;;;;;;5073564;28;20294;-79
2022/10/10 14:09:07;;;;;;;4.05;2.22;;;;;;;;;;5072572;28;20742;-79
2022/10/10 14:11:34;;;;;;;3.85;2.42;;;;;;;;;;5073504;28;20205;-80
2022/10/10 14:14:04;;;;;;;3.03;2.70;;;;;;;;;;5072937;28;20690;-79
2022/10/10 14:16:32;;;;;;;5.32;2.67;;;;;;;;;;5072874;28;20231;-79
2022/10/10 14:18:59;;;;;;;5.65;2.90;;;;;;;;;;5073165;28;20203;-79
2022/10/10 14:21:26;;;;;;;4.00;2.80;;;;;;;;;;5072806;28;20242;-79
2022/10/10 14:23:53;;;;;;;4.50;2.53;;;;;;;;;;5082842;28;20285;-79
2022/10/10 14:26:22;;;;;;;5.35;3.03;;;;;;;;;;5093265;28;20285;-79
2022/10/10 14:28:50;;;;;;;7.30;3.80;;;;;;;;;;5092839;28;20245;-79
2022/10/10 14:31:17;;;;;;;10.15;5.28;;;;;;;;;;5073324;28;20753;-78
2022/10/10 14:33:44;;;;;;;14.00;6.88;;;;;;;;;;5073188;28;20286;-79
2022/10/10 14:36:13;;;;;;;9.25;5.20;;;;;;;;;;5072329;28;20243;-79
2022/10/10 14:38:40;;;;;;;5.88;3.72;;;;;;;;;;5072622;28;20210;-79